Hoegh Africa — C6TD3 — position and weather

sailwx.info

Track history (hours):
 
Tides and Currents Weather Stations Pressure Air Temp Water Temp Dewpoint Dewpoint Depression Visibility Wind Speed Wind Dir Waves Ship Positions

Hoegh Africa

Last reported at 2018-May-22 20:54 UTC. Time now 2018-May-22 21:15 UTC.
Position N 28°56' W 095°20'.

Length 200 m; draft 8.7 m.

Type: Cargo ship. MMSI: 311594000.

Date/timePositionNaut miles runAvg speedWind from/ knotsBaromVisibWave heightAir tempDewpointWater temp
2018-May-22 20:54N 28°56' W 095°20'0 0.0
2018-May-22 20:27N 28°56' W 095°20'0 0.0
2018-May-22 20:00N 28°56' W 095°20'0 0.0
2018-May-22 19:29N 28°56' W 095°20'0 0.0
2018-May-22 18:56N 28°56' W 095°20'0 0.0
2018-May-22 18:20N 28°56' W 095°20'0 0.0
2018-May-22 17:59N 28°56' W 095°20'0 0.0
2018-May-22 17:29N 28°56' W 095°20'0 0.0
2018-May-22 16:59N 28°56' W 095°20'0 0.0
2018-May-22 16:29N 28°56' W 095°20'0 0.0
2018-May-22 15:59N 28°56' W 095°20'0 0.0
2018-May-22 15:29N 28°56' W 095°20'0 0.0
2018-May-22 14:59N 28°56' W 095°20'0 0.0
2018-May-22 14:29N 28°56' W 095°20'0 0.0
2018-May-22 13:59N 28°56' W 095°20'0 0.0
2018-May-22 13:29N 28°56' W 095°20'0 0.0
2018-May-22 12:59N 28°56' W 095°20'0 0.2
2018-May-22 12:30N 28°56' W 095°20'2 3.8
2018-May-22 12:00N 28°57' W 095°18'510.4
2018-May-22 11:30N 28°53' W 095°14'5 9.5
2018-May-22 11:00N 28°49' W 095°10'6 9.0
2018-May-22 10:23N 28°45' W 095°06'512.8
2018-May-22 09:58N 28°41' W 095°02'  
2018-May-19 17:48N 25°22' W 079°38'515.9
2018-May-19 17:30N 25°27' W 079°38'815.6
2018-May-19 17:00N 25°34' W 079°35'816.0
2018-May-19 16:30N 25°42' W 079°33'816.0
2018-May-19 16:00N 25°50' W 079°32'815.7
2018-May-19 15:28N 25°58' W 079°30'715.6
2018-May-19 15:00N 26°06' W 079°29'815.8
2018-May-19 14:30N 26°14' W 079°29'  
2018-May-15 23:42N 38°45' W 076°26'318.0
2018-May-15 23:31N 38°48' W 076°25'917.3
2018-May-15 23:01N 38°57' W 076°23'713.7
2018-May-15 22:30N 39°04' W 076°24'613.1
2018-May-15 22:00N 39°10' W 076°26'611.2
2018-May-15 21:30N 39°13' W 076°32'3 5.8
2018-May-15 21:00N 39°15' W 076°35'0 0.0
2018-May-15 20:30N 39°15' W 076°35'0 0.0
2018-May-15 20:00N 39°15' W 076°35'0 0.0
2018-May-15 19:30N 39°15' W 076°35'0 0.0
2018-May-15 19:00N 39°15' W 076°35'0 0.0
2018-May-15 18:30N 39°15' W 076°35'0 0.0
2018-May-15 18:00N 39°15' W 076°35'0 0.0
2018-May-15 17:30N 39°15' W 076°35'0 0.0
2018-May-15 17:00N 39°15' W 076°35'0 0.0
2018-May-15 16:30N 39°15' W 076°35'0 0.0
2018-May-15 16:00N 39°15' W 076°35'0 0.8
2018-May-15 15:30N 39°15' W 076°34'1 2.9
2018-May-15 15:00N 39°14' W 076°33'1 1.8
2018-May-15 14:30N 39°15' W 076°32'0 0.0
2018-May-15 14:00N 39°15' W 076°32'0 0.0
2018-May-15 13:29N 39°15' W 076°32'0 0.0
2018-May-15 12:59N 39°15' W 076°32'0 0.0
2018-May-15 12:29N 39°15' W 076°32'0 0.0
2018-May-15 12:00N 39°15' W 076°32'0 0.0
2018-May-15 11:30N 39°15' W 076°32'0 0.0
2018-May-15 10:59N 39°15' W 076°32'0 0.0
2018-May-15 10:29N 39°15' W 076°32'0 0.0
2018-May-15 09:59N 39°15' W 076°32'0 0.0
2018-May-15 09:29N 39°15' W 076°32'1 2.9
2018-May-15 09:01N 39°14' W 076°33'4 8.4
2018-May-15 08:30N 39°11' W 076°28'612.2
2018-May-15 08:00N 39°07' W 076°24'815.2
2018-May-15 07:30N 38°59' W 076°23'918.0
2018-May-15 07:00N 38°50' W 076°24'918.1
2018-May-15 06:30N 38°41' W 076°25'917.7
2018-May-15 06:00N 38°32' W 076°25'918.5
2018-May-15 05:30N 38°24' W 076°20'1218.4
2018-May-15 04:53N 38°13' W 076°15'6817.3
2018-May-15 00:55N 37°05' W 076°06'716.8
2018-May-15 00:30N 36°59' W 076°01'510.1
2018-May-15 00:00N 36°57' W 075°56'3 6.0
2018-May-14 23:30N 36°57' W 075°52'3 6.1
2018-May-14 23:00N 36°58' W 075°48'  
Track history (hours):
 
Tides and Currents Weather Stations Pressure Air Temp Water Temp Dewpoint Dewpoint Depression Visibility Wind Speed Wind Dir Waves Ship Positions

Hoegh Africa

Last reported at 2018-May-22 20:54 UTC. Time now 2018-May-22 21:15 UTC.
Position N 28°56' W 095°20'.

Length 200 m; draft 8.7 m.

Type: Cargo ship. MMSI: 311594000.

Date/timePositionNaut miles runAvg speedWind from/ knotsBaromVisibWave heightAir tempDewpointWater temp
2018-May-22 20:54N 28°56' W 095°20'0 0.0
2018-May-22 20:27N 28°56' W 095°20'0 0.0
2018-May-22 20:00N 28°56' W 095°20'0 0.0
2018-May-22 19:29N 28°56' W 095°20'0 0.0
2018-May-22 18:56N 28°56' W 095°20'0 0.0
2018-May-22 18:20N 28°56' W 095°20'0 0.0
2018-May-22 17:59N 28°56' W 095°20'0 0.0
2018-May-22 17:29N 28°56' W 095°20'0 0.0
2018-May-22 16:59N 28°56' W 095°20'0 0.0
2018-May-22 16:29N 28°56' W 095°20'0 0.0
2018-May-22 15:59N 28°56' W 095°20'0 0.0
2018-May-22 15:29N 28°56' W 095°20'0 0.0
2018-May-22 14:59N 28°56' W 095°20'0 0.0
2018-May-22 14:29N 28°56' W 095°20'0 0.0
2018-May-22 13:59N 28°56' W 095°20'0 0.0
2018-May-22 13:29N 28°56' W 095°20'0 0.0
2018-May-22 12:59N 28°56' W 095°20'0 0.2
2018-May-22 12:30N 28°56' W 095°20'2 3.8
2018-May-22 12:00N 28°57' W 095°18'510.4
2018-May-22 11:30N 28°53' W 095°14'5 9.5
2018-May-22 11:00N 28°49' W 095°10'6 9.0
2018-May-22 10:23N 28°45' W 095°06'512.8
2018-May-22 09:58N 28°41' W 095°02'  
2018-May-19 17:48N 25°22' W 079°38'515.9
2018-May-19 17:30N 25°27' W 079°38'815.6
2018-May-19 17:00N 25°34' W 079°35'816.0
2018-May-19 16:30N 25°42' W 079°33'816.0
2018-May-19 16:00N 25°50' W 079°32'815.7
2018-May-19 15:28N 25°58' W 079°30'715.6
2018-May-19 15:00N 26°06' W 079°29'815.8
2018-May-19 14:30N 26°14' W 079°29'  
2018-May-15 23:42N 38°45' W 076°26'318.0
2018-May-15 23:31N 38°48' W 076°25'917.3
2018-May-15 23:01N 38°57' W 076°23'713.7
2018-May-15 22:30N 39°04' W 076°24'613.1
2018-May-15 22:00N 39°10' W 076°26'611.2
2018-May-15 21:30N 39°13' W 076°32'3 5.8
2018-May-15 21:00N 39°15' W 076°35'0 0.0
2018-May-15 20:30N 39°15' W 076°35'0 0.0
2018-May-15 20:00N 39°15' W 076°35'0 0.0
2018-May-15 19:30N 39°15' W 076°35'0 0.0
2018-May-15 19:00N 39°15' W 076°35'0 0.0
2018-May-15 18:30N 39°15' W 076°35'0 0.0
2018-May-15 18:00N 39°15' W 076°35'0 0.0
2018-May-15 17:30N 39°15' W 076°35'0 0.0
2018-May-15 17:00N 39°15' W 076°35'0 0.0
2018-May-15 16:30N 39°15' W 076°35'0 0.0
2018-May-15 16:00N 39°15' W 076°35'0 0.8
2018-May-15 15:30N 39°15' W 076°34'1 2.9
2018-May-15 15:00N 39°14' W 076°33'1 1.8
2018-May-15 14:30N 39°15' W 076°32'0 0.0
2018-May-15 14:00N 39°15' W 076°32'0 0.0
2018-May-15 13:29N 39°15' W 076°32'0 0.0
2018-May-15 12:59N 39°15' W 076°32'0 0.0
2018-May-15 12:29N 39°15' W 076°32'0 0.0
2018-May-15 12:00N 39°15' W 076°32'0 0.0
2018-May-15 11:30N 39°15' W 076°32'0 0.0
2018-May-15 10:59N 39°15' W 076°32'0 0.0
2018-May-15 10:29N 39°15' W 076°32'0 0.0
2018-May-15 09:59N 39°15' W 076°32'0 0.0
2018-May-15 09:29N 39°15' W 076°32'1 2.9
2018-May-15 09:01N 39°14' W 076°33'4 8.4
2018-May-15 08:30N 39°11' W 076°28'612.2
2018-May-15 08:00N 39°07' W 076°24'815.2
2018-May-15 07:30N 38°59' W 076°23'918.0
2018-May-15 07:00N 38°50' W 076°24'918.1
2018-May-15 06:30N 38°41' W 076°25'917.7
2018-May-15 06:00N 38°32' W 076°25'918.5
2018-May-15 05:30N 38°24' W 076°20'1218.4
2018-May-15 04:53N 38°13' W 076°15'6817.3
2018-May-15 00:55N 37°05' W 076°06'716.8
2018-May-15 00:30N 36°59' W 076°01'510.1
2018-May-15 00:00N 36°57' W 075°56'3 6.0
2018-May-14 23:30N 36°57' W 075°52'3 6.1
2018-May-14 23:00N 36°58' W 075°48'  

Dump ship's entire track history